Time;durP1;ratioP1;P1;durP2;ratioP2;P2;SDS_P1;SDS_P2;PMS_P1;PMS_P2;Temp;Humidity;BMP_temperature;BMP_pressure;BME280_temperature;BME280_humidity;BME280_pressure;Samples;Min_cycle;Max_cycle;Signal;HPM_P1;HPM_P2
2021/06/01 00:00:56;;;;;;;12.13;7.08;;;;;;;6.25;68.88;100200.33;262716;1106;101446;-66
2021/06/01 00:06:01;;;;;;;8.93;7.77;;;;;;;6.28;69.15;100189.35;262618;1107;101599;-66
2021/06/01 00:11:08;;;;;;;12.23;7.67;;;;;;;6.23;69.45;100199.70;261755;1107;102960;-66
2021/06/01 00:16:14;;;;;;;7.97;5.97;;;;;;;6.13;68.59;100200.05;261868;1107;102936;-66
2021/06/01 00:21:20;;;;;;;7.10;5.45;;;;;;;5.98;69.43;100196.70;261616;1107;102984;-66
2021/06/01 00:26:25;;;;;;;10.33;8.55;;;;;;;5.89;69.15;100200.50;261266;1107;102946;-67
2021/06/01 00:31:30;;;;;;;10.80;8.40;;;;;;;5.86;69.28;100198.20;261179;1107;102949;-66
2021/06/01 00:36:35;;;;;;;13.20;8.45;;;;;;;5.78;69.59;100199.19;261105;1107;102957;-67
2021/06/01 00:41:41;;;;;;;10.15;8.73;;;;;;;5.73;69.92;100194.47;260812;1103;103085;-69
2021/06/01 00:46:46;;;;;;;10.40;8.53;;;;;;;5.74;70.40;100198.75;261051;1107;102955;-67
2021/06/01 00:51:50;;;;;;;10.30;8.10;;;;;;;5.68;69.97;100193.41;260246;1107;103030;-67
2021/06/01 00:56:56;;;;;;;16.45;9.60;;;;;;;5.60;70.41;100197.00;260230;1107;103038;-67
2021/06/01 01:02:04;;;;;;;15.85;10.60;;;;;;;5.57;70.47;100197.38;260634;1107;103088;-67
2021/06/01 01:07:19;;;;;;;12.15;10.83;;;;;;;5.50;70.23;100193.88;260660;1107;103085;-66
2021/06/01 01:12:34;;;;;;;14.43;11.10;;;;;;;5.50;70.80;100191.23;260460;1107;103479;-66
2021/06/01 01:17:58;;;;;;;13.70;11.05;;;;;;;5.52;71.00;100191.84;260811;1107;102968;-66
2021/06/01 01:23:14;;;;;;;13.53;10.15;;;;;;;5.40;70.56;100193.38;260868;1107;102970;-68
2021/06/01 01:28:41;;;;;;;15.68;9.80;;;;;;;5.32;71.13;100190.86;261003;1107;102973;-68
2021/06/01 01:33:48;;;;;;;15.73;11.13;;;;;;;5.32;70.74;100188.22;260377;1107;103094;-67
2021/06/01 01:38:53;;;;;;;;;;;;;;;5.31;71.72;100181.29;260151;1107;103033;-68
2021/06/01 01:44:00;;;;;;;14.68;10.63;;;;;;;5.21;71.23;100170.20;261609;1107;102937;-69
2021/06/01 01:49:05;;;;;;;14.63;9.80;;;;;;;5.16;71.60;100177.91;260806;1107;104901;-69
2021/06/01 01:54:15;;;;;;;17.23;12.15;;;;;;;5.22;72.14;100171.84;262481;1107;103131;-67
2021/06/01 01:59:24;;;;;;;13.80;8.33;;;;;;;5.26;71.80;100165.17;262450;1107;102976;-66
2021/06/01 02:04:31;;;;;;;20.78;13.20;;;;;;;5.34;71.93;100165.05;262158;1107;103136;-67
2021/06/01 02:09:37;;;;;;;21.88;13.20;;;;;;;5.47;71.98;100157.25;262290;1107;102954;-65
2021/06/01 02:14:42;;;;;;;15.80;11.20;;;;;;;5.55;71.90;100162.38;262202;1107;102963;-69
2021/06/01 02:19:49;;;;;;;11.85;9.65;;;;;;;5.58;72.04;100166.46;261517;1107;103014;-67
2021/06/01 02:25:01;;;;;;;11.70;9.23;;;;;;;5.59;72.25;100165.45;260729;1107;102968;-67
2021/06/01 02:30:21;;;;;;;11.80;9.08;;;;;;;5.64;73.05;100158.59;260173;1107;102948;-66
2021/06/01 02:35:33;;;;;;;22.33;11.95;;;;;;;5.73;72.84;100160.08;260877;1107;103020;-68
2021/06/01 02:40:39;;;;;;;17.80;11.78;;;;;;;5.88;73.15;100153.86;260489;1107;103078;-68
2021/06/01 02:45:46;;;;;;;22.15;13.85;;;;;;;5.96;72.80;100148.45;261045;1107;102981;-67
2021/06/01 02:50:53;;;;;;;14.18;11.23;;;;;;;6.04;73.38;100150.95;261059;1102;103047;-66
2021/06/01 02:55:58;;;;;;;16.13;10.28;;;;;;;6.12;73.02;100147.30;261028;1107;103035;-66
2021/06/01 03:01:04;;;;;;;20.40;12.13;;;;;;;6.23;73.23;100152.88;260371;1107;103040;-69
2021/06/01 03:06:08;;;;;;;14.33;9.83;;;;;;;6.40;73.11;100150.73;260701;1107;103014;-67
2021/06/01 03:11:18;;;;;;;13.08;9.98;;;;;;;6.55;73.09;100155.86;261124;1107;104946;-66
2021/06/01 03:16:22;;;;;;;9.83;8.40;;;;;;;6.63;72.90;100150.39;260199;1107;103031;-70
2021/06/01 03:21:27;;;;;;;8.13;7.20;;;;;;;6.63;73.03;100150.39;260035;1107;103406;-69
2021/06/01 03:26:33;;;;;;;10.03;8.15;;;;;;;6.66;73.07;100147.35;260880;1107;103101;-67
2021/06/01 03:31:37;;;;;;;17.35;11.50;;;;;;;6.81;73.57;100140.04;260190;1107;102947;-68
2021/06/01 03:36:41;;;;;;;12.38;11.05;;;;;;;7.03;73.74;100138.06;260134;1103;103591;-66
2021/06/01 03:41:45;;;;;;;14.38;11.03;;;;;;;7.17;73.63;100145.00;261806;1107;102947;-65
2021/06/01 03:46:50;;;;;;;8.55;7.68;;;;;;;7.27;74.14;100139.31;261793;1107;102955;-65
2021/06/01 03:51:54;;;;;;;11.13;9.35;;;;;;;7.38;73.64;100136.03;261860;1107;103061;-69
2021/06/01 03:56:59;;;;;;;17.43;12.33;;;;;;;7.61;73.52;100128.49;262254;1107;102936;-66
2021/06/01 04:02:04;;;;;;;19.27;12.57;;;;;;;7.98;73.56;100123.50;262707;1107;101367;-66
2021/06/01 04:07:12;;;;;;;14.93;11.68;;;;;;;8.23;73.48;100134.28;262716;1103;101215;-67
2021/06/01 04:12:17;;;;;;;12.53;10.93;;;;;;;8.34;72.82;100123.83;262703;1107;101490;-66
2021/06/01 04:17:21;;;;;;;13.33;10.35;;;;;;;8.45;73.10;100114.39;261481;1102;102945;-68
2021/06/01 04:22:26;;;;;;;16.05;11.88;;;;;;;8.58;72.72;100122.28;261453;1107;103171;-66
2021/06/01 04:27:31;;;;;;;17.00;12.70;;;;;;;8.73;73.40;100128.14;261735;1106;103034;-67
2021/06/01 04:32:37;;;;;;;22.03;10.80;;;;;;;8.94;73.89;100129.64;261181;1106;103066;-66
2021/06/01 04:37:42;;;;;;;21.13;12.70;;;;;;;9.26;73.80;100127.78;261266;1107;102939;-68
2021/06/01 04:42:47;;;;;;;20.60;11.90;;;;;;;9.56;73.04;100127.13;260987;1106;103032;-69
2021/06/01 04:47:52;;;;;;;24.85;9.73;;;;;;;9.74;72.90;100140.50;260774;1107;103003;-67
2021/06/01 04:52:57;;;;;;;13.05;10.13;;;;;;;9.83;72.95;100144.48;260714;1107;102983;-66
2021/06/01 04:58:02;;;;;;;16.60;12.38;;;;;;;10.01;72.77;100143.70;260090;1107;102999;-68
2021/06/01 05:03:08;;;;;;;15.05;12.00;;;;;;;10.32;73.69;100140.93;261120;1103;103075;-66
2021/06/01 05:08:13;;;;;;;17.55;12.30;;;;;;;10.53;73.58;100141.49;260593;1107;103123;-68
2021/06/01 05:13:19;;;;;;;13.93;10.88;;;;;;;10.72;73.66;100145.73;260085;1107;102979;-70
2021/06/01 05:18:25;;;;;;;18.78;12.20;;;;;;;10.87;73.15;100151.50;261231;1103;104784;-67
2021/06/01 05:23:41;;;;;;;21.73;15.00;;;;;;;11.17;73.39;100142.66;261185;1107;102003;-67
2021/06/01 05:28:45;;;;;;;16.93;14.13;;;;;;;11.38;73.52;100142.92;261104;1107;102993;-66
2021/06/01 05:33:54;;;;;;;17.78;12.83;;;;;;;11.55;73.10;100143.08;260874;1107;107373;-65
2021/06/01 05:39:00;;;;;;;19.48;15.30;;;;;;;11.74;73.25;100141.91;261106;1107;102963;-66
2021/06/01 05:44:06;;;;;;;30.00;17.40;;;;;;;12.17;72.58;100139.95;261796;1107;102945;-67
2021/06/01 05:49:11;;;;;;;24.38;14.88;;;;;;;12.76;71.70;100136.05;262107;1107;101132;-66
2021/06/01 05:54:17;;;;;;;25.35;14.20;;;;;;;13.25;70.71;100131.86;262121;1102;101386;-66
2021/06/01 05:59:22;;;;;;;19.57;13.23;;;;;;;13.33;70.52;100127.97;262686;1107;101285;-67
2021/06/01 06:04:26;;;;;;;17.07;14.07;;;;;;;13.40;70.68;100133.98;262661;1107;101462;-67
2021/06/01 06:09:31;;;;;;;19.63;12.23;;;;;;;13.45;70.09;100132.17;261462;1107;103036;-66
2021/06/01 06:14:36;;;;;;;26.03;18.73;;;;;;;13.58;70.03;100133.72;261979;1107;103111;-66
2021/06/01 06:19:43;;;;;;;19.35;15.05;;;;;;;13.82;69.77;100129.79;262653;1107;103079;-65
2021/06/01 06:24:47;;;;;;;18.00;15.23;;;;;;;14.09;70.34;100135.25;261269;1107;102943;-66
2021/06/01 06:29:57;;;;;;;15.40;11.53;;;;;;;14.29;69.70;100123.19;261817;1107;102963;-66
2021/06/01 06:35:02;;;;;;;16.50;11.80;;;;;;;14.55;68.40;100124.33;261220;1103;103088;-65
2021/06/01 06:40:09;;;;;;;15.93;12.58;;;;;;;15.07;68.45;100122.70;261515;1107;103043;-66
2021/06/01 06:45:15;;;;;;;11.45;8.18;;;;;;;15.64;67.30;100124.80;260978;1107;103119;-67
2021/06/01 06:50:24;;;;;;;17.83;8.13;;;;;;;15.66;66.16;100127.23;260891;1107;103063;-66
2021/06/01 06:55:29;;;;;;;11.33;7.70;;;;;;;15.47;65.66;100116.88;260964;1107;103100;-68
2021/06/01 07:00:36;;;;;;;8.10;6.85;;;;;;;15.30;64.90;100108.13;260842;1107;103043;-67
2021/06/01 07:05:40;;;;;;;15.10;7.75;;;;;;;15.20;64.28;100088.45;260445;1101;102939;-67
2021/06/01 07:10:44;;;;;;;8.98;6.88;;;;;;;15.14;64.03;100074.98;260441;1103;103009;-67
2021/06/01 07:15:53;;;;;;;10.25;6.48;;;;;;;15.09;64.84;100074.13;260824;1103;103065;-67
2021/06/01 07:21:01;;;;;;;10.45;7.40;;;;;;;15.11;64.48;100086.23;260615;1107;103043;-67
2021/06/01 07:26:06;;;;;;;9.28;6.13;;;;;;;15.50;63.90;100086.80;260052;1107;103129;-67
2021/06/01 07:31:14;;;;;;;9.03;7.80;;;;;;;16.16;63.41;100073.76;260180;1107;102969;-66
2021/06/01 07:36:19;;;;;;;9.80;5.90;;;;;;;17.31;62.55;100078.00;260874;1107;102961;-68
2021/06/01 07:41:25;;;;;;;12.05;6.58;;;;;;;17.58;61.13;100080.39;259989;1107;103099;-67
2021/06/01 07:46:30;;;;;;;14.75;6.98;;;;;;;17.63;60.47;100064.22;261078;1107;102964;-68
2021/06/01 07:51:35;;;;;;;12.25;5.83;;;;;;;17.83;59.84;100054.20;260793;1107;103299;-66
2021/06/01 07:56:41;;;;;;;7.73;5.10;;;;;;;18.04;59.07;100065.72;260783;1103;103123;-66
2021/06/01 08:01:47;;;;;;;7.10;5.00;;;;;;;18.46;58.25;100070.66;260534;1107;103015;-67
2021/06/01 08:06:52;;;;;;;9.35;5.30;;;;;;;18.76;57.64;100058.89;260934;1107;103039;-66
2021/06/01 08:11:57;;;;;;;7.80;5.00;;;;;;;18.68;55.87;100058.67;260906;1107;103349;-67
2021/06/01 08:17:03;;;;;;;5.35;4.05;;;;;;;18.56;55.09;100052.80;262575;1107;101630;-67
2021/06/01 08:27:14;;;;;;;5.73;4.78;;;;;;;18.25;55.46;100066.46;260641;1107;103068;-69
2021/06/01 08:32:18;;;;;;;5.53;4.98;;;;;;;18.04;55.21;100063.02;260090;1107;102988;-69
2021/06/01 08:37:24;;;;;;;6.70;3.65;;;;;;;17.84;54.98;100063.10;261936;1107;102994;-69
2021/06/01 08:42:30;;;;;;;8.15;4.33;;;;;;;17.84;55.17;100066.61;260849;1107;103391;-70
2021/06/01 08:47:37;;;;;;;4.60;4.15;;;;;;;17.87;55.31;100067.14;259921;1107;103014;-68
2021/06/01 08:52:42;;;;;;;4.75;3.48;;;;;;;17.92;55.30;100054.45;260678;1107;102985;-68
2021/06/01 08:57:46;;;;;;;7.88;3.60;;;;;;;17.87;54.81;100059.86;259849;1107;102944;-69
2021/06/01 09:03:09;;;;;;;4.48;3.48;;;;;;;17.77;54.60;100060.69;261419;1107;102961;-69
2021/06/01 09:08:17;;;;;;;6.43;3.70;;;;;;;17.69;54.19;100063.16;261617;1107;103085;-69
2021/06/01 09:13:59;;;;;;;4.88;4.18;;;;;;;17.73;55.24;100065.01;260145;1102;103039;-69
2021/06/01 09:24:35;;;;;;;4.25;3.93;;;;;;;17.90;54.55;100059.31;259909;1107;103129;-68
2021/06/01 09:29:47;;;;;;;5.40;3.95;;;;;;;17.96;54.15;100063.61;259716;1101;103335;-68
2021/06/01 09:34:56;;;;;;;4.73;3.28;;;;;;;18.06;53.90;100055.46;260182;1107;103043;-68
2021/06/01 09:40:22;;;;;;;6.13;3.65;;;;;;;18.27;53.59;100050.80;260711;1107;103110;-67
2021/06/01 09:45:26;;;;;;;5.10;3.30;;;;;;;18.49;53.94;100047.70;260010;1107;103064;-67
2021/06/01 09:50:40;;;;;;;5.45;3.93;;;;;;;18.44;52.92;100048.53;260331;1103;102964;-68
2021/06/01 09:55:50;;;;;;;4.15;2.48;;;;;;;18.50;52.25;100039.33;261436;1107;102960;-67
2021/06/01 10:00:56;;;;;;;3.53;3.23;;;;;;;18.54;52.25;100033.38;261614;1107;103067;-68
2021/06/01 10:06:01;;;;;;;6.80;3.43;;;;;;;18.83;51.88;100042.38;262448;1107;102925;-69
2021/06/01 10:11:10;;;;;;;6.07;3.20;;;;;;;19.13;51.80;100042.13;262548;1107;101406;-67
2021/06/01 10:16:17;;;;;;;2.65;2.45;;;;;;;19.48;51.44;100035.59;262525;1107;102899;-70
2021/06/01 10:21:24;;;;;;;5.78;2.98;;;;;;;19.74;50.47;100035.34;262551;1107;102995;-70
2021/06/01 10:26:28;;;;;;;3.65;3.10;;;;;;;20.01;50.32;100018.51;262629;1107;101493;-69
2021/06/01 10:31:33;;;;;;;3.43;2.08;;;;;;;20.30;49.49;100019.20;262545;1107;101484;-68
2021/06/01 10:53:26;;;;;;;3.87;2.70;;;;;;;21.17;46.55;100014.06;259842;1107;103330;-68
2021/06/01 10:58:41;;;;;;;5.58;2.60;;;;;;;21.32;46.50;100012.22;259837;1107;103069;-69
2021/06/01 11:04:07;;;;;;;5.83;2.50;;;;;;;21.26;46.17;100006.08;260802;1107;103108;-69
2021/06/01 11:09:33;;;;;;;;;;;;;;;21.21;46.18;100002.65;260399;1107;103098;-69
2021/06/01 11:14:38;;;;;;;3.85;3.03;;;;;;;21.31;46.22;100010.61;259961;1107;102971;-69
2021/06/01 11:20:00;;;;;;;5.70;3.50;;;;;;;21.56;46.07;100014.75;260809;1107;103283;-70
2021/06/01 11:36:00;;;;;;;4.38;3.88;;;;;;;21.62;44.70;99999.99;261202;1107;103012;-69
2021/06/01 11:41:23;;;;;;;5.15;3.45;;;;;;;21.40;45.50;100006.89;261328;1107;102958;-69
2021/06/01 11:46:31;;;;;;;4.13;3.53;;;;;;;21.15;45.27;100002.70;259982;1107;103414;-69
2021/06/01 11:51:35;;;;;;;7.03;4.35;;;;;;;21.00;46.29;99992.14;259919;1107;103094;-68
2021/06/01 12:23:38;;;;;;;3.50;3.18;;;;;;;20.74;46.62;99985.55;261479;1107;102949;-71
2021/06/01 12:34:42;;;;;;;5.65;3.50;;;;;;;20.38;46.01;99986.09;261225;1107;102990;-69
2021/06/01 12:45:43;;;;;;;6.03;3.55;;;;;;;19.92;47.70;99985.06;262151;1107;102942;-70
2021/06/01 13:08:12;;;;;;;3.58;3.00;;;;;;;18.92;52.13;100000.17;260177;1107;103067;-69
2021/06/01 13:30:13;;;;;;;6.00;3.98;;;;;;;18.48;53.23;100005.59;260060;1107;103024;-68
2021/06/01 13:46:19;;;;;;;3.40;2.70;;;;;;;18.58;53.08;100010.13;259524;1106;103097;-69
2021/06/01 13:56:32;;;;;;;2.88;2.63;;;;;;;18.73;52.77;100010.03;260589;1107;103099;-67
2021/06/01 14:02:10;;;;;;;2.58;2.18;;;;;;;18.98;52.11;100012.52;259810;1107;104475;-68
2021/06/01 15:49:33;;;;;;;3.03;2.83;;;;;;;18.65;51.60;99997.94;261456;1107;102957;-68
2021/06/01 17:04:47;;;;;;;4.13;2.75;;;;;;;17.55;53.13;99992.80;261318;1107;102959;-68
2021/06/01 17:15:23;;;;;;;3.70;3.43;;;;;;;17.53;54.24;100000.34;260217;1107;103040;-67
2021/06/01 17:36:30;;;;;;;6.03;3.30;;;;;;;17.14;55.14;100019.81;260441;1107;102963;-69
2021/06/01 17:41:36;;;;;;;3.45;2.95;;;;;;;16.99;54.93;100017.14;260732;1107;103251;-68
2021/06/01 17:46:44;;;;;;;3.43;3.13;;;;;;;16.89;55.66;100019.83;261233;1107;103341;-67
2021/06/01 17:51:54;;;;;;;3.95;3.63;;;;;;;16.78;56.10;100010.95;260790;1107;103183;-67
2021/06/01 17:57:00;;;;;;;5.53;3.23;;;;;;;16.58;56.37;100018.16;261147;1107;103035;-66
2021/06/01 18:02:06;;;;;;;3.73;3.38;;;;;;;16.49;56.70;100016.02;260924;1107;101991;-65
2021/06/01 18:07:19;;;;;;;4.48;3.68;;;;;;;16.43;57.47;100017.08;261215;1107;103054;-71
2021/06/01 19:01:40;;;;;;;7.60;5.50;;;;;;;15.43;60.38;100066.59;261462;1107;102939;-68
2021/06/01 19:54:58;;;;;;;7.60;5.63;;;;;;;14.83;62.90;100110.67;260591;1107;103214;-67
2021/06/01 20:00:06;;;;;;;6.80;6.10;;;;;;;14.82;63.08;100103.69;261419;1107;102298;-68
2021/06/01 20:05:14;;;;;;;8.78;6.63;;;;;;;14.79;62.85;100102.31;260647;1107;103116;-66
2021/06/01 20:10:19;;;;;;;8.30;6.43;;;;;;;14.76;63.10;100112.73;259867;1107;102988;-67
2021/06/01 20:15:30;;;;;;;6.10;5.30;;;;;;;14.72;63.26;100117.80;261934;1106;103040;-68
2021/06/01 20:20:39;;;;;;;6.38;5.78;;;;;;;14.66;63.10;100120.70;260876;1107;103080;-64
2021/06/01 20:25:49;;;;;;;10.58;5.40;;;;;;;14.63;62.94;100132.75;261717;1107;103074;-67
2021/06/01 20:31:00;;;;;;;11.00;6.25;;;;;;;14.64;63.85;100130.88;260853;1107;103746;-69
2021/06/01 20:36:06;;;;;;;7.55;6.05;;;;;;;14.63;63.73;100129.25;262043;1107;102968;-68
2021/06/01 20:41:14;;;;;;;5.50;5.00;;;;;;;14.55;63.19;100132.38;260578;1107;103065;-67
2021/06/01 20:46:23;;;;;;;9.90;5.60;;;;;;;14.46;63.80;100132.00;261839;1101;102934;-67
2021/06/01 20:51:28;;;;;;;6.60;5.10;;;;;;;14.43;64.16;100135.98;262390;1107;102874;-66
2021/06/01 20:56:33;;;;;;;10.87;6.23;;;;;;;14.40;63.80;100135.64;262398;1107;102950;-65
2021/06/01 21:01:41;;;;;;;8.83;5.37;;;;;;;14.38;63.67;100135.89;262669;1107;101202;-67
2021/06/01 21:06:47;;;;;;;7.30;6.13;;;;;;;14.39;63.77;100142.06;262695;1107;101368;-68
2021/06/01 21:11:54;;;;;;;14.80;6.28;;;;;;;14.37;63.50;100150.36;260964;1107;103037;-68
2021/06/01 21:17:00;;;;;;;6.10;5.50;;;;;;;14.36;63.28;100146.08;261321;1107;102971;-69
2021/06/01 21:22:06;;;;;;;7.95;4.75;;;;;;;14.28;63.67;100146.51;261154;1107;102959;-69
2021/06/01 21:27:11;;;;;;;8.50;5.48;;;;;;;14.24;64.49;100156.11;260091;1107;102962;-68
2021/06/01 21:32:27;;;;;;;7.83;6.93;;;;;;;14.25;64.60;100159.60;260872;1107;102949;-68
2021/06/01 21:37:39;;;;;;;12.53;5.10;;;;;;;14.17;64.48;100166.19;259987;1107;103081;-67
2021/06/01 21:42:46;;;;;;;5.93;5.40;;;;;;;14.12;64.48;100168.80;261226;1107;102986;-66
2021/06/01 21:48:04;;;;;;;5.93;4.93;;;;;;;14.04;64.82;100164.70;259980;1107;102963;-68
2021/06/01 21:53:14;;;;;;;6.60;5.90;;;;;;;13.92;65.01;100171.20;260394;1107;103043;-68
2021/06/01 21:58:21;;;;;;;5.80;5.25;;;;;;;13.83;65.26;100171.61;260765;1107;103060;-67
2021/06/01 22:03:30;;;;;;;7.13;6.48;;;;;;;13.77;64.87;100177.13;260172;1107;102968;-67
2021/06/01 22:08:36;;;;;;;5.48;4.98;;;;;;;13.74;65.64;100181.14;260898;1107;103123;-66
2021/06/01 22:13:41;;;;;;;11.90;6.30;;;;;;;13.68;65.18;100179.43;260714;1107;103229;-65
2021/06/01 22:18:49;;;;;;;7.05;6.45;;;;;;;13.57;65.68;100185.67;260425;1107;103103;-68
2021/06/01 22:23:57;;;;;;;6.03;5.20;;;;;;;13.52;65.87;100185.58;260909;1103;103061;-66
2021/06/01 22:29:04;;;;;;;14.20;9.45;;;;;;;13.51;65.81;100191.99;260602;1107;103075;-69
2021/06/01 22:34:13;;;;;;;10.73;9.63;;;;;;;13.51;65.81;100191.99;260491;1107;103111;-67
2021/06/01 22:39:18;;;;;;;9.05;7.60;;;;;;;13.43;66.39;100187.88;260469;1107;103105;-68
2021/06/01 22:44:28;;;;;;;11.83;8.18;;;;;;;13.40;66.77;100198.25;260278;1107;102942;-66
2021/06/01 22:49:32;;;;;;;13.73;8.30;;;;;;;13.43;66.70;100187.06;262017;1107;102783;-66
2021/06/01 22:54:37;;;;;;;15.03;9.25;;;;;;;13.46;67.27;100191.91;261434;1102;103099;-68
2021/06/01 22:59:50;;;;;;;9.40;8.08;;;;;;;13.45;66.77;100191.09;262302;1107;102939;-68
2021/06/01 23:04:56;;;;;;;10.75;6.48;;;;;;;13.42;66.94;100201.50;262676;1107;101271;-65
2021/06/01 23:10:02;;;;;;;9.70;7.30;;;;;;;13.35;66.84;100200.84;262684;1107;102818;-67
2021/06/01 23:15:10;;;;;;;9.90;7.73;;;;;;;13.29;66.85;100210.64;262679;1107;101292;-67
2021/06/01 23:20:15;;;;;;;11.95;7.63;;;;;;;13.23;66.84;100213.45;262322;1107;102357;-68
2021/06/01 23:25:21;;;;;;;8.03;7.23;;;;;;;13.10;67.03;100220.72;262020;1107;102993;-67
2021/06/01 23:30:25;;;;;;;7.98;6.58;;;;;;;12.99;67.64;100229.59;261215;1107;102938;-67
2021/06/01 23:35:30;;;;;;;12.28;8.93;;;;;;;12.86;67.75;100224.51;260719;1107;103075;-67
2021/06/01 23:40:38;;;;;;;9.43;8.15;;;;;;;12.80;67.58;100225.48;260819;1107;103972;-66
2021/06/01 23:45:44;;;;;;;11.27;7.60;;;;;;;12.86;68.13;100226.38;260632;1107;102955;-67
2021/06/01 23:50:50;;;;;;;7.50;6.83;;;;;;;12.83;68.31;100235.71;260202;1107;108544;-65
2021/06/01 23:55:55;;;;;;;7.90;6.30;;;;;;;12.76;68.28;100235.03;261255;1107;102947;-67
